sensor_id;sensor_type;location;lat;lon;timestamp;pressure;altitude;pressure_sealevel;temperature;humidity
12468;BME280;57850;52.922;6.256;2023-02-11T00:00:57;103482.63;;;9.23;nan
12468;BME280;57850;52.922;6.256;2023-02-11T00:03:24;103480.88;;;9.25;nan
12468;BME280;57850;52.922;6.256;2023-02-11T00:05:57;103484.63;;;9.45;nan
12468;BME280;57850;52.922;6.256;2023-02-11T00:08:24;103493.13;;;9.32;nan
12468;BME280;57850;52.922;6.256;2023-02-11T00:10:54;103497.53;;;9.36;nan
12468;BME280;57850;52.922;6.256;2023-02-11T00:13:21;103500.91;;;9.29;nan
12468;BME280;57850;52.922;6.256;2023-02-11T00:15:48;103509.16;;;8.94;nan
12468;BME280;57850;52.922;6.256;2023-02-11T00:18:16;103492.81;;;9.06;nan
12468;BME280;57850;52.922;6.256;2023-02-11T00:20:43;103479.03;;;9.13;nan
12468;BME280;57850;52.922;6.256;2023-02-11T00:23:12;103459.81;;;9.03;nan
12468;BME280;57850;52.922;6.256;2023-02-11T00:25:39;103460.47;;;8.87;nan
12468;BME280;57850;52.922;6.256;2023-02-11T00:28:07;103445.88;;;8.98;nan
12468;BME280;57850;52.922;6.256;2023-02-11T00:30:34;103440.47;;;8.85;nan
12468;BME280;57850;52.922;6.256;2023-02-11T00:33:01;103422.28;;;8.88;nan
12468;BME280;57850;52.922;6.256;2023-02-11T00:35:28;103436.25;;;8.94;nan
12468;BME280;57850;52.922;6.256;2023-02-11T00:37:55;103458.56;;;8.74;nan
12468;BME280;57850;52.922;6.256;2023-02-11T00:40:22;103461.06;;;8.68;nan
12468;BME280;57850;52.922;6.256;2023-02-11T00:42:49;103450.81;;;8.79;nan
12468;BME280;57850;52.922;6.256;2023-02-11T00:45:17;103461.25;;;8.82;nan
12468;BME280;57850;52.922;6.256;2023-02-11T00:47:45;103475.91;;;8.74;nan
12468;BME280;57850;52.922;6.256;2023-02-11T00:50:12;103485.50;;;8.76;nan
12468;BME280;57850;52.922;6.256;2023-02-11T00:52:38;103495.59;;;8.55;nan
12468;BME280;57850;52.922;6.256;2023-02-11T00:55:08;103486.28;;;8.71;nan
12468;BME280;57850;52.922;6.256;2023-02-11T00:57:38;103491.38;;;8.65;nan
12468;BME280;57850;52.922;6.256;2023-02-11T01:00:08;103485.97;;;8.49;nan
12468;BME280;57850;52.922;6.256;2023-02-11T01:02:56;103487.72;;;8.50;nan
12468;BME280;57850;52.922;6.256;2023-02-11T01:05:31;103472.31;;;8.66;nan
12468;BME280;57850;52.922;6.256;2023-02-11T01:07:58;103482.28;;;8.37;nan
12468;BME280;57850;52.922;6.256;2023-02-11T01:10:24;103470.16;;;8.36;nan
12468;BME280;57850;52.922;6.256;2023-02-11T01:12:51;103452.13;;;8.48;nan
12468;BME280;57850;52.922;6.256;2023-02-11T01:15:18;103457.44;;;8.55;nan
12468;BME280;57850;52.922;6.256;2023-02-11T01:17:46;103448.72;;;8.52;nan
12468;BME280;57850;52.922;6.256;2023-02-11T01:20:15;103447.81;;;8.50;nan
12468;BME280;57850;52.922;6.256;2023-02-11T01:22:42;103471.13;;;8.44;nan
12468;BME280;57850;52.922;6.256;2023-02-11T01:25:09;103449.69;;;8.61;nan
12468;BME280;57850;52.922;6.256;2023-02-11T01:27:39;103452.34;;;8.63;nan
12468;BME280;57850;52.922;6.256;2023-02-11T01:30:08;103460.78;;;8.47;nan
12468;BME280;57850;52.922;6.256;2023-02-11T01:32:36;103459.97;;;8.52;nan
12468;BME280;57850;52.922;6.256;2023-02-11T01:35:04;103467.69;;;8.46;nan
12468;BME280;57850;52.922;6.256;2023-02-11T01:37:31;103446.28;;;8.66;nan
12468;BME280;57850;52.922;6.256;2023-02-11T01:40:04;103452.00;;;8.39;nan
12468;BME280;57850;52.922;6.256;2023-02-11T01:42:32;103440.09;;;8.56;nan
12468;BME280;57850;52.922;6.256;2023-02-11T01:44:59;103412.72;;;8.85;nan
12468;BME280;57850;52.922;6.256;2023-02-11T01:47:27;103429.81;;;8.65;nan
12468;BME280;57850;52.922;6.256;2023-02-11T01:49:56;103433.19;;;8.59;nan
12468;BME280;57850;52.922;6.256;2023-02-11T01:52:26;103414.34;;;8.77;nan
12468;BME280;57850;52.922;6.256;2023-02-11T01:54:58;103421.59;;;9.02;nan
12468;BME280;57850;52.922;6.256;2023-02-11T01:57:46;103417.06;;;8.83;nan
12468;BME280;57850;52.922;6.256;2023-02-11T02:00:17;103410.94;;;8.81;nan
12468;BME280;57850;52.922;6.256;2023-02-11T02:02:49;103404.81;;;8.78;nan
12468;BME280;57850;52.922;6.256;2023-02-11T02:05:23;103418.66;;;8.74;nan
12468;BME280;57850;52.922;6.256;2023-02-11T02:07:59;103412.63;;;8.76;nan
12468;BME280;57850;52.922;6.256;2023-02-11T02:10:29;103393.63;;;8.83;nan
12468;BME280;57850;52.922;6.256;2023-02-11T02:12:57;103387.56;;;8.87;nan
12468;BME280;57850;52.922;6.256;2023-02-11T02:15:27;103387.31;;;8.66;nan
12468;BME280;57850;52.922;6.256;2023-02-11T02:18:15;103378.78;;;8.78;nan
12468;BME280;57850;52.922;6.256;2023-02-11T02:21:08;103370.97;;;8.78;nan
12468;BME280;57850;52.922;6.256;2023-02-11T02:23:52;103370.28;;;8.94;nan
12468;BME280;57850;52.922;6.256;2023-02-11T02:26:52;103375.41;;;8.83;nan
12468;BME280;57850;52.922;6.256;2023-02-11T02:33:06;103363.00;;;8.66;nan
12468;BME280;57850;52.922;6.256;2023-02-11T02:35:42;103364.97;;;8.83;nan
12468;BME280;57850;52.922;6.256;2023-02-11T02:38:18;103355.44;;;8.85;nan
12468;BME280;57850;52.922;6.256;2023-02-11T02:40:50;103343.41;;;8.95;nan
12468;BME280;57850;52.922;6.256;2023-02-11T02:43:20;103337.94;;;8.72;nan
12468;BME280;57850;52.922;6.256;2023-02-11T02:45:48;103318.06;;;8.79;nan
12468;BME280;57850;52.922;6.256;2023-02-11T02:48:26;103306.91;;;8.90;nan
12468;BME280;57850;52.922;6.256;2023-02-11T02:51:01;103304.44;;;9.04;nan
12468;BME280;57850;52.922;6.256;2023-02-11T02:53:43;103288.38;;;9.55;nan
12468;BME280;57850;52.922;6.256;2023-02-11T02:59:03;103174.91;;;10.30;nan
12468;BME280;57850;52.922;6.256;2023-02-11T03:01:41;103261.13;;;10.69;nan
12468;BME280;57850;52.922;6.256;2023-02-11T03:04:21;103305.47;;;10.51;nan
12468;BME280;57850;52.922;6.256;2023-02-11T03:06:54;103312.41;;;10.43;nan
12468;BME280;57850;52.922;6.256;2023-02-11T03:09:26;103315.84;;;10.39;nan
12468;BME280;57850;52.922;6.256;2023-02-11T03:11:53;103334.94;;;10.26;nan
12468;BME280;57850;52.922;6.256;2023-02-11T03:14:22;103327.84;;;10.08;nan
12468;BME280;57850;52.922;6.256;2023-02-11T03:16:57;103323.59;;;10.19;nan
12468;BME280;57850;52.922;6.256;2023-02-11T03:19:29;103308.91;;;10.39;nan
12468;BME280;57850;52.922;6.256;2023-02-11T03:21:58;103321.88;;;10.26;nan
12468;BME280;57850;52.922;6.256;2023-02-11T03:24:30;103321.13;;;10.48;nan
12468;BME280;57850;52.922;6.256;2023-02-11T03:27:00;103336.63;;;10.14;nan
12468;BME280;57850;52.922;6.256;2023-02-11T03:29:33;103335.38;;;9.68;nan
12468;BME280;57850;52.922;6.256;2023-02-11T03:32:05;103316.47;;;10.00;nan
12468;BME280;57850;52.922;6.256;2023-02-11T03:34:41;103305.41;;;10.36;nan
12468;BME280;57850;52.922;6.256;2023-02-11T03:37:12;103321.72;;;10.01;nan
12468;BME280;57850;52.922;6.256;2023-02-11T03:39:42;103318.22;;;10.01;nan
12468;BME280;57850;52.922;6.256;2023-02-11T03:42:12;103302.78;;;10.33;nan
12468;BME280;57850;52.922;6.256;2023-02-11T03:44:43;103322.75;;;10.23;nan
12468;BME280;57850;52.922;6.256;2023-02-11T03:47:14;103327.94;;;10.20;nan
12468;BME280;57850;52.922;6.256;2023-02-11T03:49:44;103331.28;;;10.01;nan
12468;BME280;57850;52.922;6.256;2023-02-11T03:52:20;103328.88;;;10.33;nan
12468;BME280;57850;52.922;6.256;2023-02-11T03:54:50;103341.66;;;9.96;nan
12468;BME280;57850;52.922;6.256;2023-02-11T03:57:19;103319.22;;;10.13;nan
12468;BME280;57850;52.922;6.256;2023-02-11T03:59:50;103314.75;;;10.03;nan
12468;BME280;57850;52.922;6.256;2023-02-11T04:02:17;103310.34;;;9.92;nan
12468;BME280;57850;52.922;6.256;2023-02-11T04:04:45;103304.34;;;10.03;nan
12468;BME280;57850;52.922;6.256;2023-02-11T04:07:12;103305.31;;;10.19;nan
12468;BME280;57850;52.922;6.256;2023-02-11T04:09:38;103318.31;;;10.11;nan
12468;BME280;57850;52.922;6.256;2023-02-11T04:12:06;103317.47;;;10.18;nan
12468;BME280;57850;52.922;6.256;2023-02-11T04:14:32;103326.94;;;10.01;nan
12468;BME280;57850;52.922;6.256;2023-02-11T04:16:59;103307.16;;;10.41;nan
12468;BME280;57850;52.922;6.256;2023-02-11T04:19:25;103333.06;;;10.08;nan
12468;BME280;57850;52.922;6.256;2023-02-11T04:21:53;103321.94;;;10.36;nan
12468;BME280;57850;52.922;6.256;2023-02-11T04:24:20;103328.84;;;10.24;nan
12468;BME280;57850;52.922;6.256;2023-02-11T04:26:47;103330.63;;;10.38;nan
12468;BME280;57850;52.922;6.256;2023-02-11T04:29:13;103320.25;;;10.49;nan
12468;BME280;57850;52.922;6.256;2023-02-11T04:31:40;103340.00;;;10.09;nan
12468;BME280;57850;52.922;6.256;2023-02-11T04:34:06;103329.75;;;10.38;nan
12468;BME280;57850;52.922;6.256;2023-02-11T04:36:33;103328.78;;;10.14;nan
12468;BME280;57850;52.922;6.256;2023-02-11T04:39:02;103350.34;;;9.92;nan
12468;BME280;57850;52.922;6.256;2023-02-11T04:41:29;103332.31;;;10.26;nan
12468;BME280;57850;52.922;6.256;2023-02-11T04:43:55;103340.88;;;10.06;nan
12468;BME280;57850;52.922;6.256;2023-02-11T04:46:22;103337.59;;;10.38;nan
12468;BME280;57850;52.922;6.256;2023-02-11T04:48:48;103361.63;;;9.88;nan
12468;BME280;57850;52.922;6.256;2023-02-11T04:51:15;103363.34;;;9.86;nan
12468;BME280;57850;52.922;6.256;2023-02-11T04:53:41;103365.06;;;9.87;nan
12468;BME280;57850;52.922;6.256;2023-02-11T04:56:09;103367.63;;;9.77;nan
12468;BME280;57850;52.922;6.256;2023-02-11T04:58:36;103363.31;;;9.82;nan
12468;BME280;57850;52.922;6.256;2023-02-11T05:01:06;103350.50;;;10.15;nan
12468;BME280;57850;52.922;6.256;2023-02-11T05:03:33;103349.69;;;10.17;nan
12468;BME280;57850;52.922;6.256;2023-02-11T05:05:59;103362.63;;;10.10;nan
12468;BME280;57850;52.922;6.256;2023-02-11T05:08:26;103353.94;;;10.12;nan
12468;BME280;57850;52.922;6.256;2023-02-11T05:10:54;103358.47;;;10.33;nan
12468;BME280;57850;52.922;6.256;2023-02-11T05:13:22;103346.31;;;10.40;nan
12468;BME280;57850;52.922;6.256;2023-02-11T05:15:50;103349.72;;;10.28;nan
12468;BME280;57850;52.922;6.256;2023-02-11T05:18:16;103354.72;;;9.98;nan
12468;BME280;57850;52.922;6.256;2023-02-11T05:20:43;103354.81;;;10.08;nan
12468;BME280;57850;52.922;6.256;2023-02-11T05:23:10;103362.50;;;9.93;nan
12468;BME280;57850;52.922;6.256;2023-02-11T05:25:39;103361.69;;;9.96;nan
12468;BME280;57850;52.922;6.256;2023-02-11T05:28:09;103344.38;;;10.10;nan
12468;BME280;57850;52.922;6.256;2023-02-11T05:30:37;103356.59;;;10.14;nan
12468;BME280;57850;52.922;6.256;2023-02-11T05:33:06;103360.75;;;9.88;nan
12468;BME280;57850;52.922;6.256;2023-02-11T05:35:33;103350.34;;;9.94;nan
12468;BME280;57850;52.922;6.256;2023-02-11T05:37:59;103353.78;;;9.88;nan
12468;BME280;57850;52.922;6.256;2023-02-11T05:40:26;103361.50;;;9.75;nan
12468;BME280;57850;52.922;6.256;2023-02-11T05:42:52;103352.97;;;9.95;nan
12468;BME280;57850;52.922;6.256;2023-02-11T05:45:19;103337.50;;;10.19;nan
12468;BME280;57850;52.922;6.256;2023-02-11T05:47:47;103357.28;;;9.90;nan
12468;BME280;57850;52.922;6.256;2023-02-11T05:50:14;103358.84;;;9.67;nan
12468;BME280;57850;52.922;6.256;2023-02-11T05:52:43;103359.81;;;9.81;nan
12468;BME280;57850;52.922;6.256;2023-02-11T05:55:10;103328.72;;;10.10;nan
12468;BME280;57850;52.922;6.256;2023-02-11T05:57:37;103346.75;;;9.78;nan
12468;BME280;57850;52.922;6.256;2023-02-11T06:00:04;103346.84;;;9.90;nan
12468;BME280;57850;52.922;6.256;2023-02-11T06:02:31;103334.91;;;10.21;nan
12468;BME280;57850;52.922;6.256;2023-02-11T06:04:59;103354.50;;;9.66;nan
12468;BME280;57850;52.922;6.256;2023-02-11T06:07:26;103351.84;;;9.60;nan
12468;BME280;57850;52.922;6.256;2023-02-11T06:09:52;103339.91;;;9.94;nan
12468;BME280;57850;52.922;6.256;2023-02-11T06:12:19;103345.06;;;9.80;nan
12468;BME280;57850;52.922;6.256;2023-02-11T06:14:46;103328.81;;;10.17;nan
12468;BME280;57850;52.922;6.256;2023-02-11T06:17:12;103333.03;;;10.06;nan
12468;BME280;57850;52.922;6.256;2023-02-11T06:19:39;103335.59;;;9.97;nan
12468;BME280;57850;52.922;6.256;2023-02-11T06:22:07;103343.25;;;9.73;nan
12468;BME280;57850;52.922;6.256;2023-02-11T06:24:34;103345.06;;;9.80;nan
12468;BME280;57850;52.922;6.256;2023-02-11T06:27:02;103327.75;;;9.93;nan
12468;BME280;57850;52.922;6.256;2023-02-11T06:29:28;103326.97;;;10.07;nan
12468;BME280;57850;52.922;6.256;2023-02-11T06:31:55;103322.88;;;10.53;nan
12468;BME280;57850;52.922;6.256;2023-02-11T06:34:22;103346.00;;;9.94;nan
12468;BME280;57850;52.922;6.256;2023-02-11T06:36:48;103347.06;;;10.19;nan
12468;BME280;57850;52.922;6.256;2023-02-11T06:39:16;103349.44;;;9.87;nan
12468;BME280;57850;52.922;6.256;2023-02-11T06:41:43;103327.91;;;10.15;nan
12468;BME280;57850;52.922;6.256;2023-02-11T06:44:09;103334.88;;;10.13;nan
12468;BME280;57850;52.922;6.256;2023-02-11T06:46:36;103329.66;;;10.18;nan
12468;BME280;57850;52.922;6.256;2023-02-11T06:49:02;103321.06;;;10.33;nan
12468;BME280;57850;52.922;6.256;2023-02-11T06:51:29;103341.00;;;10.25;nan
12468;BME280;57850;52.922;6.256;2023-02-11T06:53:55;103334.06;;;10.27;nan
12468;BME280;57850;52.922;6.256;2023-02-11T06:56:25;103327.25;;;10.57;nan
12468;BME280;57850;52.922;6.256;2023-02-11T06:58:53;103350.44;;;10.07;nan
12468;BME280;57850;52.922;6.256;2023-02-11T07:01:22;103327.97;;;10.23;nan
12468;BME280;57850;52.922;6.256;2023-02-11T07:03:52;103345.22;;;10.04;nan
12468;BME280;57850;52.922;6.256;2023-02-11T07:06:21;103318.53;;;10.57;nan
12468;BME280;57850;52.922;6.256;2023-02-11T07:08:49;103340.97;;;10.21;nan
12468;BME280;57850;52.922;6.256;2023-02-11T07:11:17;103359.16;;;10.08;nan
12468;BME280;57850;52.922;6.256;2023-02-11T07:13:46;103336.53;;;10.10;nan
12468;BME280;57850;52.922;6.256;2023-02-11T07:16:15;103340.16;;;10.27;nan
12468;BME280;57850;52.922;6.256;2023-02-11T07:18:43;103335.81;;;10.31;nan
12468;BME280;57850;52.922;6.256;2023-02-11T07:21:11;103344.50;;;10.24;nan
12468;BME280;57850;52.922;6.256;2023-02-11T07:23:38;103321.97;;;10.47;nan
12468;BME280;57850;52.922;6.256;2023-02-11T07:26:07;103345.38;;;10.32;nan
12468;BME280;57850;52.922;6.256;2023-02-11T07:28:34;103348.94;;;10.43;nan
12468;BME280;57850;52.922;6.256;2023-02-11T07:31:06;103364.47;;;10.21;nan
12468;BME280;57850;52.922;6.256;2023-02-11T07:33:33;103337.66;;;10.53;nan
12468;BME280;57850;52.922;6.256;2023-02-11T07:36:00;103354.88;;;10.14;nan
12468;BME280;57850;52.922;6.256;2023-02-11T07:38:27;103339.41;;;10.54;nan
12468;BME280;57850;52.922;6.256;2023-02-11T07:40:58;103356.66;;;10.25;nan
12468;BME280;57850;52.922;6.256;2023-02-11T07:43:25;103353.19;;;10.26;nan
12468;BME280;57850;52.922;6.256;2023-02-11T07:45:52;103332.50;;;10.65;nan
12468;BME280;57850;52.922;6.256;2023-02-11T07:48:20;103351.56;;;10.50;nan
12468;BME280;57850;52.922;6.256;2023-02-11T07:50:46;103367.16;;;10.35;nan
12468;BME280;57850;52.922;6.256;2023-02-11T07:53:13;103349.84;;;10.54;nan
12468;BME280;57850;52.922;6.256;2023-02-11T07:55:41;103362.75;;;10.20;nan
12468;BME280;57850;52.922;6.256;2023-02-11T07:58:08;103330.78;;;10.79;nan
12468;BME280;57850;52.922;6.256;2023-02-11T08:00:34;103335.19;;;10.89;nan
12468;BME280;57850;52.922;6.256;2023-02-11T08:03:01;103361.13;;;10.42;nan
12468;BME280;57850;52.922;6.256;2023-02-11T08:05:29;103346.50;;;10.88;nan
12468;BME280;57850;52.922;6.256;2023-02-11T08:07:55;103357.72;;;10.58;nan
12468;BME280;57850;52.922;6.256;2023-02-11T08:10:22;103351.59;;;10.59;nan
12468;BME280;57850;52.922;6.256;2023-02-11T08:12:48;103353.34;;;10.59;nan
12468;BME280;57850;52.922;6.256;2023-02-11T08:15:15;103340.41;;;10.86;nan
12468;BME280;57850;52.922;6.256;2023-02-11T08:17:42;103358.69;;;11.00;nan
12468;BME280;57850;52.922;6.256;2023-02-11T08:20:09;103350.91;;;11.35;nan
12468;BME280;57850;52.922;6.256;2023-02-11T08:22:37;103363.91;;;11.00;nan
12468;BME280;57850;52.922;6.256;2023-02-11T08:25:04;103361.38;;;11.50;nan
12468;BME280;57850;52.922;6.256;2023-02-11T08:27:31;103377.88;;;11.05;nan
12468;BME280;57850;52.922;6.256;2023-02-11T08:29:58;103360.50;;;11.69;nan
12468;BME280;57850;52.922;6.256;2023-02-11T08:32:26;103397.06;;;11.10;nan
12468;BME280;57850;52.922;6.256;2023-02-11T08:34:53;103384.94;;;11.45;nan
12468;BME280;57850;52.922;6.256;2023-02-11T08:37:20;103397.09;;;11.31;nan
12468;BME280;57850;52.922;6.256;2023-02-11T08:39:48;103414.53;;;11.34;nan
12468;BME280;57850;52.922;6.256;2023-02-11T08:42:15;103396.25;;;11.59;nan
12468;BME280;57850;52.922;6.256;2023-02-11T08:44:42;103408.47;;;11.51;nan
12468;BME280;57850;52.922;6.256;2023-02-11T08:47:08;103411.97;;;11.55;nan
12468;BME280;57850;52.922;6.256;2023-02-11T08:49:35;103386.63;;;12.29;nan
12468;BME280;57850;52.922;6.256;2023-02-11T08:52:02;103412.84;;;12.08;nan
12468;BME280;57850;52.922;6.256;2023-02-11T08:54:29;103416.34;;;11.75;nan
12468;BME280;57850;52.922;6.256;2023-02-11T08:56:57;103398.84;;;12.32;nan
12468;BME280;57850;52.922;6.256;2023-02-11T08:59:26;103412.84;;;12.08;nan
12468;BME280;57850;52.922;6.256;2023-02-11T09:01:53;103408.44;;;12.25;nan
12468;BME280;57850;52.922;6.256;2023-02-11T09:04:20;103403.25;;;12.16;nan
12468;BME280;57850;52.922;6.256;2023-02-11T09:06:47;103411.09;;;11.94;nan
12468;BME280;57850;52.922;6.256;2023-02-11T09:09:14;103408.50;;;12.07;nan
12468;BME280;57850;52.922;6.256;2023-02-11T09:11:43;103422.47;;;11.93;nan
12468;BME280;57850;52.922;6.256;2023-02-11T09:14:15;103392.69;;;12.56;nan
12468;BME280;57850;52.922;6.256;2023-02-11T09:16:43;103406.72;;;12.12;nan
12468;BME280;57850;52.922;6.256;2023-02-11T09:19:09;103404.94;;;12.39;nan
12468;BME280;57850;52.922;6.256;2023-02-11T09:21:36;103420.66;;;12.35;nan
12468;BME280;57850;52.922;6.256;2023-02-11T09:24:03;103416.28;;;12.36;nan
12468;BME280;57850;52.922;6.256;2023-02-11T09:26:32;103432.88;;;12.29;nan
12468;BME280;57850;52.922;6.256;2023-02-11T09:29:01;103433.75;;;12.28;nan
12468;BME280;57850;52.922;6.256;2023-02-11T09:31:30;103435.53;;;12.27;nan
12468;BME280;57850;52.922;6.256;2023-02-11T09:33:59;103424.97;;;12.53;nan
12468;BME280;57850;52.922;6.256;2023-02-11T09:36:27;103461.72;;;12.02;nan
12468;BME280;57850;52.922;6.256;2023-02-11T09:38:54;103461.72;;;12.18;nan
12468;BME280;57850;52.922;6.256;2023-02-11T09:41:34;103446.72;;;12.72;nan
12468;BME280;57850;52.922;6.256;2023-02-11T09:44:05;103459.91;;;12.49;nan
12468;BME280;57850;52.922;6.256;2023-02-11T09:46:37;103451.13;;;12.67;nan
12468;BME280;57850;52.922;6.256;2023-02-11T09:49:06;103464.25;;;12.53;nan
12468;BME280;57850;52.922;6.256;2023-02-11T09:51:38;103466.00;;;12.51;nan
12468;BME280;57850;52.922;6.256;2023-02-11T09:54:12;103467.75;;;12.48;nan
12468;BME280;57850;52.922;6.256;2023-02-11T09:56:42;103451.03;;;12.91;nan
12468;BME280;57850;52.922;6.256;2023-02-11T09:59:09;103463.31;;;12.75;nan
12468;BME280;57850;52.922;6.256;2023-02-11T10:01:46;103481.75;;;12.53;nan
12468;BME280;57850;52.922;6.256;2023-02-11T10:04:23;103469.38;;;12.93;nan
12468;BME280;57850;52.922;6.256;2023-02-11T10:07:01;103460.50;;;13.30;nan
12468;BME280;57850;52.922;6.256;2023-02-11T10:09:53;103479.84;;;12.91;nan
12468;BME280;57850;52.922;6.256;2023-02-11T10:12:39;103507.03;;;12.61;nan
12468;BME280;57850;52.922;6.256;2023-02-11T10:15:20;103466.69;;;13.06;nan
12468;BME280;57850;52.922;6.256;2023-02-11T10:18:18;103484.22;;;12.98;nan
12468;BME280;57850;52.922;6.256;2023-02-11T10:21:01;103493.84;;;12.88;nan
12468;BME280;57850;52.922;6.256;2023-02-11T10:23:32;103495.53;;;13.06;nan
12468;BME280;57850;52.922;6.256;2023-02-11T10:26:00;103509.59;;;12.82;nan
12468;BME280;57850;52.922;6.256;2023-02-11T10:28:30;103493.75;;;13.22;nan
12468;BME280;57850;52.922;6.256;2023-02-11T10:30:59;103486.69;;;13.39;nan
12468;BME280;57850;52.922;6.256;2023-02-11T10:33:30;103491.13;;;13.28;nan
12468;BME280;57850;52.922;6.256;2023-02-11T10:35:58;103520.09;;;12.81;nan
12468;BME280;57850;52.922;6.256;2023-02-11T10:38:26;103498.16;;;13.05;nan
12468;BME280;57850;52.922;6.256;2023-02-11T10:40:53;103493.72;;;13.31;nan
12468;BME280;57850;52.922;6.256;2023-02-11T10:43:23;103500.81;;;13.09;nan
12468;BME280;57850;52.922;6.256;2023-02-11T10:45:52;103490.91;;;13.61;nan
12468;BME280;57850;52.922;6.256;2023-02-11T10:48:42;103496.19;;;13.54;nan
12468;BME280;57850;52.922;6.256;2023-02-11T10:51:18;103482.88;;;13.87;nan
12468;BME280;57850;52.922;6.256;2023-02-11T10:53:46;103511.16;;;13.35;nan
12468;BME280;57850;52.922;6.256;2023-02-11T10:56:20;103496.22;;;13.51;nan
12468;BME280;57850;52.922;6.256;2023-02-11T10:58:54;103472.16;;;14.10;nan
12468;BME280;57850;52.922;6.256;2023-02-11T11:01:37;103506.75;;;13.41;nan
12468;BME280;57850;52.922;6.256;2023-02-11T11:04:06;103505.84;;;13.49;nan
12468;BME280;57850;52.922;6.256;2023-02-11T11:06:51;103500.53;;;13.65;nan
12468;BME280;57850;52.922;6.256;2023-02-11T11:09:26;103486.25;;;14.03;nan
12468;BME280;57850;52.922;6.256;2023-02-11T11:11:54;103477.38;;;14.16;nan
12468;BME280;57850;52.922;6.256;2023-02-11T11:14:21;103503.25;;;13.46;nan
12468;BME280;57850;52.922;6.256;2023-02-11T11:16:53;103493.38;;;13.82;nan
12468;BME280;57850;52.922;6.256;2023-02-11T11:19:23;103497.66;;;13.94;nan
12468;BME280;57850;52.922;6.256;2023-02-11T11:21:52;103497.63;;;14.02;nan
12468;BME280;57850;52.922;6.256;2023-02-11T11:24:21;103498.44;;;14.08;nan
12468;BME280;57850;52.922;6.256;2023-02-11T11:26:51;103517.03;;;13.81;nan
12468;BME280;57850;52.922;6.256;2023-02-11T11:29:21;103522.31;;;13.78;nan
12468;BME280;57850;52.922;6.256;2023-02-11T11:31:54;103508.22;;;13.88;nan
12468;BME280;57850;52.922;6.256;2023-02-11T11:34:26;103504.59;;;14.06;nan
12468;BME280;57850;52.922;6.256;2023-02-11T11:36:56;103491.25;;;14.31;nan
12468;BME280;57850;52.922;6.256;2023-02-11T11:39:26;103502.66;;;14.27;nan
12468;BME280;57850;52.922;6.256;2023-02-11T11:41:57;103510.47;;;14.32;nan
12468;BME280;57850;52.922;6.256;2023-02-11T11:44:29;103497.25;;;14.45;nan
12468;BME280;57850;52.922;6.256;2023-02-11T11:47:21;103510.50;;;14.29;nan
12468;BME280;57850;52.922;6.256;2023-02-11T11:50:04;103511.53;;;14.14;nan
12468;BME280;57850;52.922;6.256;2023-02-11T11:52:39;103515.03;;;14.13;nan
12468;BME280;57850;52.922;6.256;2023-02-11T11:55:14;103514.25;;;14.02;nan
12468;BME280;57850;52.922;6.256;2023-02-11T11:57:42;103496.19;;;14.65;nan
12468;BME280;57850;52.922;6.256;2023-02-11T12:00:19;103486.47;;;14.73;nan
12468;BME280;57850;52.922;6.256;2023-02-11T12:03:08;103500.66;;;14.54;nan
12468;BME280;57850;52.922;6.256;2023-02-11T12:05:47;103520.13;;;14.28;nan
12468;BME280;57850;52.922;6.256;2023-02-11T12:08:23;103514.88;;;14.31;nan
12468;BME280;57850;52.922;6.256;2023-02-11T12:10:59;103519.41;;;14.16;nan
12468;BME280;57850;52.922;6.256;2023-02-11T12:13:48;103492.81;;;14.52;nan
12468;BME280;57850;52.922;6.256;2023-02-11T12:16:29;103494.53;;;14.55;nan
12468;BME280;57850;52.922;6.256;2023-02-11T12:22:11;103501.75;;;14.33;nan
12468;BME280;57850;52.922;6.256;2023-02-11T12:24:51;103490.22;;;14.47;nan
12468;BME280;57850;52.922;6.256;2023-02-11T12:27:25;103501.72;;;14.40;nan
12468;BME280;57850;52.922;6.256;2023-02-11T12:30:02;103520.38;;;14.01;nan
12468;BME280;57850;52.922;6.256;2023-02-11T12:32:39;103492.78;;;14.55;nan
12468;BME280;57850;52.922;6.256;2023-02-11T12:35:30;103477.63;;;14.80;nan
12468;BME280;57850;52.922;6.256;2023-02-11T12:38:21;103473.31;;;14.73;nan
12468;BME280;57850;52.922;6.256;2023-02-11T12:41:01;103477.44;;;14.95;nan
12468;BME280;57850;52.922;6.256;2023-02-11T12:43:35;103479.41;;;14.78;nan
12468;BME280;57850;52.922;6.256;2023-02-11T12:46:13;103454.22;;;15.27;nan
12468;BME280;57850;52.922;6.256;2023-02-11T12:48:58;103486.59;;;14.62;nan
12468;BME280;57850;52.922;6.256;2023-02-11T12:51:42;103416.44;;;15.89;nan
12468;BME280;57850;52.922;6.256;2023-02-11T12:54:21;103426.19;;;15.83;nan
12468;BME280;57850;52.922;6.256;2023-02-11T12:56:53;103418.63;;;15.63;nan
12468;BME280;57850;52.922;6.256;2023-02-11T12:59:30;103436.50;;;15.40;nan
12468;BME280;57850;52.922;6.256;2023-02-11T13:02:01;103442.78;;;15.31;nan
12468;BME280;57850;52.922;6.256;2023-02-11T13:04:34;103449.19;;;15.11;nan
12468;BME280;57850;52.922;6.256;2023-02-11T13:07:04;103440.84;;;15.44;nan
12468;BME280;57850;52.922;6.256;2023-02-11T13:09:42;103428.22;;;15.67;nan
12468;BME280;57850;52.922;6.256;2023-02-11T13:12:12;103423.50;;;15.87;nan
12468;BME280;57850;52.922;6.256;2023-02-11T13:14:58;103457.66;;;15.34;nan
12468;BME280;57850;52.922;6.256;2023-02-11T13:17:32;103505.22;;;14.35;nan
12468;BME280;57850;52.922;6.256;2023-02-11T13:20:13;103481.13;;;14.79;nan
12468;BME280;57850;52.922;6.256;2023-02-11T13:22:45;103506.94;;;14.43;nan
12468;BME280;57850;52.922;6.256;2023-02-11T13:25:20;103516.94;;;13.96;nan
12468;BME280;57850;52.922;6.256;2023-02-11T13:27:54;103528.38;;;13.86;nan
12468;BME280;57850;52.922;6.256;2023-02-11T13:30:26;103519.50;;;14.01;nan
12468;BME280;57850;52.922;6.256;2023-02-11T13:33:18;103528.31;;;13.97;nan
12468;BME280;57850;52.922;6.256;2023-02-11T13:35:48;103509.53;;;14.45;nan
12468;BME280;57850;52.922;6.256;2023-02-11T13:38:35;103502.53;;;14.47;nan
12468;BME280;57850;52.922;6.256;2023-02-11T13:41:09;103522.03;;;14.16;nan
12468;BME280;57850;52.922;6.256;2023-02-11T13:43:41;103507.88;;;14.36;nan